createdAt,value
2022-09-07T00:00:22.167Z,6.80
2022-09-07T00:01:22.332Z,7.10
2022-09-07T00:02:22.203Z,7.40
2022-09-07T00:03:22.311Z,6.80
2022-09-07T00:04:22.180Z,7.10
2022-09-07T00:05:22.123Z,6.90
2022-09-07T00:06:22.129Z,7.30
2022-09-07T00:07:22.286Z,7.30
2022-09-07T00:08:29.731Z,7.80
2022-09-07T00:09:22.067Z,8.10
2022-09-07T00:10:22.057Z,7.90
2022-09-07T00:11:22.045Z,7.60
2022-09-07T00:12:22.039Z,7.60
2022-09-07T00:13:22.363Z,8.50
2022-09-07T00:14:22.026Z,7.80
2022-09-07T00:15:22.014Z,7.80
2022-09-07T00:16:22.051Z,7.20
2022-09-07T00:17:21.994Z,8.30
2022-09-07T00:18:21.968Z,8.20
2022-09-07T00:19:22.118Z,8.20
2022-09-07T00:20:21.947Z,8.10
2022-09-07T00:21:21.938Z,8.00
2022-09-07T00:22:21.926Z,7.90
2022-09-07T00:23:21.928Z,8.30
2022-09-07T00:24:21.944Z,8.00
2022-09-07T00:25:22.211Z,8.40
2022-09-07T00:26:21.905Z,8.30
2022-09-07T00:27:21.889Z,8.20
2022-09-07T00:28:21.889Z,7.70
2022-09-07T00:29:21.863Z,7.80
2022-09-07T00:30:21.872Z,8.00
2022-09-07T00:31:22.302Z,8.30
2022-09-07T00:32:21.832Z,8.30
2022-09-07T00:33:21.835Z,8.80
2022-09-07T00:34:21.808Z,7.90
2022-09-07T00:35:21.801Z,8.80
2022-09-07T00:36:21.791Z,8.80
2022-09-07T00:37:24.638Z,8.00
2022-09-07T00:38:21.765Z,8.20
2022-09-07T00:39:21.757Z,7.80
2022-09-07T00:40:22.103Z,8.30
2022-09-07T00:41:21.739Z,8.80
2022-09-07T00:42:21.728Z,8.30
2022-09-07T00:43:21.719Z,8.80
2022-09-07T00:44:21.731Z,8.70
2022-09-07T00:45:21.711Z,9.00
2022-09-07T00:46:21.892Z,8.90
2022-09-07T00:47:21.670Z,9.00
2022-09-07T00:48:21.869Z,8.90
2022-09-07T00:49:21.670Z,7.80
2022-09-07T00:50:21.629Z,8.60
2022-09-07T00:51:21.628Z,9.60
2022-09-07T00:52:21.630Z,9.30
2022-09-07T00:53:21.608Z,9.60
2022-09-07T00:54:21.778Z,8.70
2022-09-07T00:55:21.592Z,8.20
2022-09-07T00:56:21.586Z,9.00
2022-09-07T00:57:21.569Z,8.80
2022-09-07T00:58:21.553Z,8.20
2022-09-07T00:59:21.568Z,7.70
2022-09-07T01:00:21.701Z,7.60
2022-09-07T01:01:21.587Z,7.80
2022-09-07T01:02:21.656Z,8.10
2022-09-07T01:03:21.498Z,7.70
2022-09-07T01:04:21.483Z,7.90
2022-09-07T01:05:21.489Z,8.80
2022-09-07T01:06:21.712Z,7.90
2022-09-07T01:07:21.475Z,8.70
2022-09-07T01:08:21.450Z,7.80
2022-09-07T01:09:21.438Z,7.60
2022-09-07T01:10:21.441Z,7.20
2022-09-07T01:11:21.411Z,7.80
2022-09-07T01:12:21.741Z,8.10
2022-09-07T01:13:21.391Z,8.60
2022-09-07T01:14:21.385Z,8.40
2022-09-07T01:15:21.362Z,7.90
2022-09-07T01:16:21.389Z,8.00
2022-09-07T01:17:21.352Z,8.00
2022-09-07T01:18:21.689Z,8.90
2022-09-07T01:19:21.351Z,8.70
2022-09-07T01:20:21.320Z,8.50
2022-09-07T01:21:21.300Z,8.30
2022-09-07T01:22:21.296Z,8.60
2022-09-07T01:23:21.293Z,8.60
2022-09-07T01:24:21.600Z,8.90
2022-09-07T01:25:21.261Z,8.50
2022-09-07T01:26:21.256Z,10.20
2022-09-07T01:27:21.229Z,8.90
2022-09-07T01:28:21.223Z,9.60
2022-09-07T01:29:21.214Z,9.30
2022-09-07T01:30:21.441Z,10.10
2022-09-07T01:31:21.255Z,9.80
2022-09-07T01:32:21.180Z,9.10
2022-09-07T01:33:21.172Z,9.30
2022-09-07T01:34:21.171Z,8.40
2022-09-07T01:35:21.159Z,8.70
2022-09-07T01:36:21.298Z,9.30
2022-09-07T01:37:21.133Z,9.60
2022-09-07T01:38:21.121Z,9.40
2022-09-07T01:39:21.116Z,9.70
2022-09-07T01:40:21.109Z,10.60
2022-09-07T01:41:21.083Z,9.40
2022-09-07T01:42:21.317Z,9.10
2022-09-07T01:43:21.055Z,9.60
2022-09-07T01:44:21.082Z,9.50
2022-09-07T01:45:21.038Z,9.10
2022-09-07T01:46:21.047Z,8.70
2022-09-07T01:47:21.023Z,9.60
2022-09-07T01:48:21.178Z,10.20
2022-09-07T01:49:20.998Z,9.40
2022-09-07T01:50:20.994Z,10.40
2022-09-07T01:51:20.990Z,8.90
2022-09-07T01:52:20.965Z,9.80
2022-09-07T01:53:20.945Z,9.60
2022-09-07T01:54:21.278Z,8.90
2022-09-07T01:55:20.932Z,10.00
2022-09-07T01:56:20.932Z,9.60
2022-09-07T01:57:20.913Z,10.30
2022-09-07T01:58:20.924Z,10.20
2022-09-07T01:59:20.884Z,9.40
2022-09-07T02:00:21.133Z,9.50
2022-09-07T02:01:20.939Z,9.30
2022-09-07T02:02:20.934Z,10.10
2022-09-07T02:03:20.854Z,9.10
2022-09-07T02:04:20.844Z,9.90
2022-09-07T02:05:20.824Z,10.20
2022-09-07T02:06:20.991Z,10.60
2022-09-07T02:07:20.809Z,10.80
2022-09-07T02:08:20.800Z,10.40
2022-09-07T02:09:20.796Z,10.30
2022-09-07T02:10:20.783Z,10.70
2022-09-07T02:11:20.765Z,10.80
2022-09-07T02:12:20.920Z,10.30
2022-09-07T02:13:20.736Z,10.30
2022-09-07T02:14:20.733Z,10.70
2022-09-07T02:15:20.731Z,11.20
2022-09-07T02:16:20.778Z,11.10
2022-09-07T02:17:20.707Z,10.80
2022-09-07T02:18:20.911Z,10.80
2022-09-07T02:19:20.701Z,10.70
2022-09-07T02:20:20.666Z,10.20
2022-09-07T02:21:20.673Z,10.60
2022-09-07T02:22:20.646Z,10.00
2022-09-07T02:23:20.635Z,11.00
2022-09-07T02:24:20.834Z,11.30
2022-09-07T02:25:20.606Z,10.60
2022-09-07T02:26:20.597Z,10.50
2022-09-07T02:27:20.595Z,10.00
2022-09-07T02:28:20.586Z,9.80
2022-09-07T02:29:20.573Z,9.80
2022-09-07T02:30:20.725Z,10.20
2022-09-07T02:31:20.642Z,11.10
2022-09-07T02:32:20.533Z,10.70
2022-09-07T02:33:20.522Z,10.00
2022-09-07T02:34:20.518Z,10.50
2022-09-07T02:35:20.501Z,10.50
2022-09-07T02:36:20.830Z,11.30
2022-09-07T02:37:20.487Z,11.00
2022-09-07T02:38:20.487Z,12.00
2022-09-07T02:39:20.457Z,12.00
2022-09-07T02:40:20.457Z,11.90
2022-09-07T02:41:20.455Z,11.20
2022-09-07T02:42:20.729Z,11.50
2022-09-07T02:43:20.435Z,11.80
2022-09-07T02:44:20.405Z,11.40
2022-09-07T02:45:20.409Z,11.30
2022-09-07T02:46:20.437Z,11.00
2022-09-07T02:47:20.380Z,11.70
2022-09-07T02:48:20.702Z,11.70
2022-09-07T02:49:20.346Z,11.20
2022-09-07T02:50:20.337Z,11.90
2022-09-07T02:51:20.338Z,11.80
2022-09-07T02:52:20.325Z,11.40
2022-09-07T02:53:20.347Z,11.80
2022-09-07T02:54:20.746Z,11.50
2022-09-07T02:55:20.299Z,11.50
2022-09-07T02:56:20.292Z,12.00
2022-09-07T02:57:20.263Z,12.00
2022-09-07T02:58:20.255Z,11.70
2022-09-07T02:59:20.247Z,11.90
2022-09-07T03:00:20.396Z,11.80
2022-09-07T03:01:20.311Z,11.60
2022-09-07T03:02:20.281Z,11.60
2022-09-07T03:03:20.206Z,11.20
2022-09-07T03:04:20.186Z,11.60
2022-09-07T03:05:20.182Z,11.90
2022-09-07T03:06:20.323Z,12.00
2022-09-07T03:07:20.157Z,11.80
2022-09-07T03:08:20.163Z,11.90
2022-09-07T03:09:20.131Z,11.70
2022-09-07T03:10:20.140Z,11.40
2022-09-07T03:11:20.115Z,10.70
2022-09-07T03:12:20.257Z,11.00
2022-09-07T03:13:20.098Z,11.40
2022-09-07T03:14:20.081Z,11.70
2022-09-07T03:15:20.070Z,11.70
2022-09-07T03:16:20.137Z,11.20
2022-09-07T03:17:20.049Z,11.20
2022-09-07T03:18:20.203Z,10.70
2022-09-07T03:19:20.031Z,11.40
2022-09-07T03:20:20.026Z,11.80
2022-09-07T03:21:19.999Z,11.40
2022-09-07T03:22:19.986Z,10.90
2022-09-07T03:23:19.987Z,11.80
2022-09-07T03:24:20.147Z,11.00
2022-09-07T03:25:19.983Z,11.60
2022-09-07T03:26:19.966Z,11.30
2022-09-07T03:27:19.950Z,11.60
2022-09-07T03:28:19.919Z,12.00
2022-09-07T03:29:19.927Z,12.20
2022-09-07T03:30:20.137Z,12.40
2022-09-07T03:31:19.944Z,12.30
2022-09-07T03:32:19.889Z,13.10
2022-09-07T03:33:19.889Z,11.80
2022-09-07T03:34:19.894Z,13.10
2022-09-07T03:35:19.858Z,12.40
2022-09-07T03:36:20.081Z,11.70
2022-09-07T03:37:19.833Z,12.50
2022-09-07T03:38:19.846Z,12.10
2022-09-07T03:39:19.816Z,12.40
2022-09-07T03:40:19.801Z,12.40
2022-09-07T03:41:19.788Z,12.50
2022-09-07T03:42:19.954Z,13.20
2022-09-07T03:43:19.769Z,13.00
2022-09-07T03:44:19.770Z,12.40
2022-09-07T03:45:19.747Z,13.20
2022-09-07T03:46:19.809Z,12.30
2022-09-07T03:47:19.888Z,12.10
2022-09-07T03:48:19.724Z,12.70
2022-09-07T03:49:19.735Z,12.30
2022-09-07T03:50:19.688Z,13.10
2022-09-07T03:51:19.688Z,12.90
2022-09-07T03:52:19.687Z,11.90
2022-09-07T03:53:19.830Z,11.80
2022-09-07T03:54:19.659Z,12.10
2022-09-07T03:55:19.638Z,12.10
2022-09-07T03:56:19.645Z,11.50
2022-09-07T03:57:19.620Z,12.10
2022-09-07T03:58:19.624Z,11.10
2022-09-07T03:59:19.921Z,11.20
2022-09-07T04:00:19.599Z,12.00
2022-09-07T04:01:19.644Z,11.80
2022-09-07T04:02:19.624Z,10.70
2022-09-07T04:03:19.554Z,10.90
2022-09-07T04:04:19.546Z,11.50
2022-09-07T04:05:19.743Z,11.20
2022-09-07T04:06:19.541Z,10.40
2022-09-07T04:07:19.535Z,10.90
2022-09-07T04:08:19.500Z,10.90
2022-09-07T04:09:19.490Z,10.80
2022-09-07T04:10:19.479Z,10.20
2022-09-07T04:11:19.628Z,10.60
2022-09-07T04:12:19.462Z,10.50
2022-09-07T04:13:19.449Z,10.50
2022-09-07T04:14:19.437Z,10.50
2022-09-07T04:15:19.426Z,10.70
2022-09-07T04:16:19.500Z,11.30
2022-09-07T04:17:19.568Z,10.90
2022-09-07T04:18:19.413Z,11.50
2022-09-07T04:19:19.380Z,11.90
2022-09-07T04:20:19.372Z,12.40
2022-09-07T04:21:19.363Z,11.60
2022-09-07T04:22:19.360Z,11.50
2022-09-07T04:23:19.511Z,10.80
2022-09-07T04:24:19.327Z,11.90
2022-09-07T04:25:19.321Z,12.30
2022-09-07T04:26:19.310Z,12.20
2022-09-07T04:27:19.301Z,12.20
2022-09-07T04:28:19.301Z,11.90
2022-09-07T04:29:19.443Z,12.70
2022-09-07T04:30:19.261Z,13.10
2022-09-07T04:31:19.310Z,12.30
2022-09-07T04:32:19.245Z,12.50
2022-09-07T04:33:19.240Z,13.20
2022-09-07T04:34:19.216Z,13.50
2022-09-07T04:35:19.639Z,13.40
2022-09-07T04:36:19.208Z,14.10
2022-09-07T04:37:19.183Z,13.60
2022-09-07T04:38:19.183Z,13.70
2022-09-07T04:39:19.179Z,14.00
2022-09-07T04:40:19.147Z,13.80
2022-09-07T04:41:19.321Z,13.80
2022-09-07T04:42:19.148Z,13.70
2022-09-07T04:43:19.135Z,12.90
2022-09-07T04:44:19.121Z,13.40
2022-09-07T04:45:19.098Z,15.00
2022-09-07T04:46:19.186Z,14.30
2022-09-07T04:47:19.254Z,14.00
2022-09-07T04:48:19.061Z,13.30
2022-09-07T04:49:19.064Z,14.00
2022-09-07T04:50:19.050Z,13.90
2022-09-07T04:51:19.035Z,14.70
2022-09-07T04:52:19.035Z,13.90
2022-09-07T04:53:19.183Z,14.40
2022-09-07T04:54:19.002Z,13.50
2022-09-07T04:55:19.011Z,13.60
2022-09-07T04:56:18.995Z,13.00
2022-09-07T04:57:18.984Z,13.80
2022-09-07T04:58:18.961Z,14.40
2022-09-07T04:59:19.292Z,14.00
2022-09-07T05:00:18.934Z,14.50
2022-09-07T05:01:24.393Z,13.60
2022-09-07T05:02:19.972Z,14.50
2022-09-07T05:03:18.922Z,15.20
2022-09-07T05:04:18.983Z,15.00
2022-09-07T05:05:19.061Z,15.00
2022-09-07T05:06:18.915Z,15.30
2022-09-07T05:07:18.867Z,15.10
2022-09-07T05:08:18.948Z,14.40
2022-09-07T05:09:18.857Z,14.50
2022-09-07T05:10:18.832Z,14.80
2022-09-07T05:11:19.383Z,15.30
2022-09-07T05:12:18.852Z,16.10
2022-09-07T05:13:18.875Z,16.40
2022-09-07T05:14:18.789Z,15.70
2022-09-07T05:15:18.797Z,16.30
2022-09-07T05:16:18.825Z,15.60
2022-09-07T05:17:18.952Z,14.60
2022-09-07T05:18:18.754Z,14.70
2022-09-07T05:19:18.770Z,13.70
2022-09-07T05:20:20.360Z,11.30
2022-09-07T05:21:18.749Z,10.50
2022-09-07T05:22:18.702Z,10.50
2022-09-07T05:23:18.975Z,9.80
2022-09-07T05:24:18.675Z,9.70
2022-09-07T05:25:18.670Z,8.90
2022-09-07T05:26:18.662Z,9.80
2022-09-07T05:27:18.668Z,9.20
2022-09-07T05:28:19.508Z,9.40
2022-09-07T05:31:20.235Z,9.90
2022-09-07T05:32:18.616Z,9.50
2022-09-07T05:33:18.577Z,9.70
2022-09-07T05:34:33.996Z,10.10
2022-09-07T05:35:19.995Z,11.50
2022-09-07T05:36:18.623Z,11.30
2022-09-07T05:37:18.542Z,10.70
2022-09-07T05:38:18.544Z,11.40
2022-09-07T05:39:18.580Z,11.70
2022-09-07T05:40:18.550Z,11.30
2022-09-07T05:41:18.676Z,12.20
2022-09-07T05:42:18.474Z,12.50
2022-09-07T05:43:18.535Z,11.80
2022-09-07T05:45:19.461Z,11.40
2022-09-07T05:46:18.504Z,11.60
2022-09-07T05:47:18.685Z,12.30
2022-09-07T05:48:18.434Z,11.60
2022-09-07T05:49:18.474Z,11.60
2022-09-07T05:50:18.411Z,11.30
2022-09-07T05:51:18.403Z,11.70
2022-09-07T05:52:18.554Z,11.50
2022-09-07T05:53:18.395Z,12.20
2022-09-07T05:54:18.368Z,12.20
2022-09-07T05:55:29.900Z,12.30
2022-09-07T05:56:19.423Z,12.50
2022-09-07T05:57:18.335Z,12.70
2022-09-07T05:58:18.549Z,11.60
2022-09-07T05:59:18.316Z,12.10
2022-09-07T06:00:18.379Z,11.70
2022-09-07T06:01:18.307Z,12.50
2022-09-07T06:02:18.435Z,11.90
2022-09-07T06:03:18.402Z,11.60
2022-09-07T06:04:18.441Z,12.40
2022-09-07T06:05:18.255Z,11.50
2022-09-07T06:06:18.259Z,11.80
2022-09-07T06:07:22.034Z,11.30
2022-09-07T06:08:18.221Z,10.80
2022-09-07T06:09:18.227Z,11.80
2022-09-07T06:11:19.217Z,11.60
2022-09-07T06:12:18.348Z,11.60
2022-09-07T06:13:18.179Z,11.60
2022-09-07T06:14:18.240Z,11.00
2022-09-07T06:15:18.551Z,10.80
2022-09-07T06:16:18.166Z,11.30
2022-09-07T06:17:18.139Z,11.90
2022-09-07T06:18:18.118Z,11.10
2022-09-07T06:19:18.098Z,11.90
2022-09-07T06:20:18.089Z,12.10
2022-09-07T06:21:18.279Z,13.30
2022-09-07T06:22:18.071Z,13.70
2022-09-07T06:23:18.057Z,13.20
2022-09-07T06:24:18.018Z,12.60
2022-09-07T06:25:18.124Z,13.30
2022-09-07T06:26:18.017Z,12.90
2022-09-07T06:27:18.171Z,13.20
2022-09-07T06:28:18.044Z,13.00
2022-09-07T06:29:18.017Z,13.70
2022-09-07T06:30:17.969Z,13.20
2022-09-07T06:31:18.092Z,13.80
2022-09-07T06:33:21.908Z,13.20
2022-09-07T06:34:17.934Z,13.50
2022-09-07T06:35:17.910Z,13.00
2022-09-07T06:36:17.944Z,13.90
2022-09-07T06:37:17.901Z,15.50
2022-09-07T06:38:17.874Z,14.00
2022-09-07T06:39:18.071Z,13.20
2022-09-07T06:40:17.851Z,11.40
2022-09-07T06:42:18.840Z,13.10
2022-09-07T06:43:17.823Z,12.80
2022-09-07T06:44:17.923Z,13.20
2022-09-07T06:45:18.021Z,12.30
2022-09-07T06:47:18.784Z,12.90
2022-09-07T06:48:17.805Z,12.70
2022-09-07T06:49:17.760Z,13.60
2022-09-07T06:50:17.831Z,13.70
2022-09-07T06:51:18.109Z,13.10
2022-09-07T06:52:17.732Z,12.70
2022-09-07T06:55:18.700Z,11.30
2022-09-07T06:56:17.763Z,12.20
2022-09-07T06:57:17.858Z,10.20
2022-09-07T06:58:17.682Z,12.10
2022-09-07T06:59:17.654Z,11.40
2022-09-07T07:00:17.639Z,11.70
2022-09-07T07:01:17.789Z,11.50
2022-09-07T07:02:17.620Z,12.00
2022-09-07T07:03:17.835Z,11.40
2022-09-07T07:04:17.681Z,10.30
2022-09-07T07:05:17.591Z,10.10
2022-09-07T07:06:17.613Z,9.80
2022-09-07T07:07:17.576Z,10.40
2022-09-07T07:08:17.559Z,9.80
2022-09-07T07:09:17.754Z,10.30
2022-09-07T07:10:22.192Z,10.40
2022-09-07T07:11:18.533Z,10.00
2022-09-07T07:13:49.523Z,10.90
2022-09-07T07:14:49.670Z,11.70
2022-09-07T07:15:49.486Z,11.70
2022-09-07T07:16:49.516Z,10.40
2022-09-07T07:17:58.049Z,10.30
2022-09-07T07:18:50.486Z,11.50
2022-09-07T07:19:49.449Z,10.90
2022-09-07T07:20:49.482Z,10.50
2022-09-07T07:22:13.993Z,10.80
2022-09-07T07:22:50.416Z,11.60
2022-09-07T07:23:49.424Z,11.50
2022-09-07T07:24:49.403Z,11.50
2022-09-07T07:25:49.568Z,11.50
2022-09-07T07:26:49.365Z,11.60
2022-09-07T07:27:49.548Z,11.30
2022-09-07T07:29:04.768Z,11.50
2022-09-07T07:29:50.358Z,11.40
2022-09-07T07:30:49.324Z,10.40
2022-09-07T07:31:49.553Z,10.30
2022-09-07T07:32:49.305Z,10.60
2022-09-07T07:33:49.356Z,11.10
2022-09-07T07:34:49.284Z,9.80
2022-09-07T07:35:49.271Z,10.10
2022-09-07T07:36:49.265Z,10.50
2022-09-07T07:37:49.730Z,10.70
2022-09-07T07:39:04.812Z,10.20
2022-09-07T07:41:54.461Z,9.80
2022-09-07T07:42:50.359Z,9.70
2022-09-07T07:43:49.194Z,9.90
2022-09-07T07:44:49.241Z,10.00
2022-09-07T07:46:49.316Z,10.00
2022-09-07T07:47:49.165Z,9.80
2022-09-07T07:48:49.287Z,9.40
2022-09-07T07:49:49.639Z,9.50
2022-09-07T07:50:49.118Z,9.80
2022-09-07T07:52:50.557Z,9.30
2022-09-07T07:53:49.276Z,9.10
2022-09-07T07:54:49.078Z,9.50
2022-09-07T07:55:49.136Z,9.90
2022-09-07T07:56:51.792Z,8.80
2022-09-07T07:57:49.052Z,10.00
2022-09-07T07:58:49.027Z,8.90
2022-09-07T07:59:49.241Z,8.90
2022-09-07T08:00:56.885Z,9.10
2022-09-07T08:01:50.246Z,9.40
2022-09-07T08:02:49.093Z,9.40
2022-09-07T08:03:49.026Z,10.60
2022-09-07T08:04:48.994Z,9.60
2022-09-07T08:05:49.214Z,9.30
2022-09-07T08:06:48.964Z,9.90
2022-09-07T08:07:48.951Z,9.10
2022-09-07T08:08:48.921Z,9.60
2022-09-07T08:09:48.919Z,9.30
2022-09-07T08:10:48.939Z,9.60
2022-09-07T08:11:49.085Z,9.40
2022-09-07T08:12:48.891Z,8.60
2022-09-07T08:13:48.881Z,8.70
2022-09-07T08:14:48.858Z,8.80
2022-09-07T08:15:49.029Z,8.80
2022-09-07T08:16:48.831Z,7.90
2022-09-07T08:17:49.008Z,8.50
2022-09-07T08:18:48.882Z,8.30
2022-09-07T08:19:48.822Z,8.20
2022-09-07T08:20:48.806Z,7.90
2022-09-07T08:21:48.809Z,8.20
2022-09-07T08:22:48.905Z,7.20
2022-09-07T08:23:48.972Z,7.50
2022-09-07T08:24:48.841Z,7.20
2022-09-07T08:25:48.751Z,7.80
2022-09-07T08:26:48.740Z,7.80
2022-09-07T08:27:48.729Z,8.60
2022-09-07T08:28:48.730Z,8.40
2022-09-07T08:29:49.084Z,8.60
2022-09-07T08:30:48.703Z,7.80
2022-09-07T08:31:48.706Z,7.80
2022-09-07T08:32:48.700Z,7.50
2022-09-07T08:33:48.682Z,7.30
2022-09-07T08:34:48.650Z,7.80
2022-09-07T08:35:48.800Z,7.50
2022-09-07T08:36:48.739Z,7.90
2022-09-07T08:37:48.620Z,7.20
2022-09-07T08:38:48.603Z,7.10
2022-09-07T08:39:48.747Z,7.00
2022-09-07T08:40:48.764Z,8.60
2022-09-07T08:41:48.580Z,8.10
2022-09-07T08:42:48.566Z,7.90
2022-09-07T08:43:49.330Z,7.80
2022-09-07T08:44:48.557Z,7.50
2022-09-07T08:45:48.541Z,8.30
2022-09-07T08:46:48.706Z,9.10
2022-09-07T08:47:48.511Z,8.40
2022-09-07T08:48:48.585Z,8.20
2022-09-07T08:49:48.503Z,8.10
2022-09-07T08:50:48.502Z,8.00
2022-09-07T08:51:48.495Z,7.30
2022-09-07T08:52:48.623Z,7.90
2022-09-07T08:53:48.454Z,7.50
2022-09-07T08:54:48.433Z,8.00
2022-09-07T08:55:48.498Z,8.20
2022-09-07T08:57:50.133Z,7.10
2022-09-07T08:58:49.789Z,7.20
2022-09-07T08:59:48.398Z,7.10
2022-09-07T09:00:48.664Z,6.10
2022-09-07T09:02:27.112Z,5.90
2022-09-07T09:04:20.562Z,6.60
2022-09-07T09:05:19.531Z,6.30
2022-09-07T09:05:49.489Z,6.90
2022-09-07T09:06:48.503Z,6.50
2022-09-07T09:07:48.293Z,7.20
2022-09-07T09:08:48.506Z,7.80
2022-09-07T09:09:48.274Z,7.30
2022-09-07T09:10:48.261Z,8.60
2022-09-07T09:11:48.253Z,7.50
2022-09-07T09:12:48.237Z,7.50
2022-09-07T09:13:48.253Z,8.00
2022-09-07T09:14:48.391Z,7.60
2022-09-07T09:15:48.260Z,6.90
2022-09-07T09:16:48.194Z,7.70
2022-09-07T09:17:48.184Z,7.20
2022-09-07T09:18:48.230Z,6.60
2022-09-07T09:19:48.176Z,7.20
2022-09-07T09:20:48.307Z,6.60
2022-09-07T09:21:48.145Z,6.90
2022-09-07T09:22:48.146Z,7.00
2022-09-07T09:23:48.127Z,6.20
2022-09-07T09:24:48.105Z,6.70
2022-09-07T09:25:48.143Z,7.20
2022-09-07T09:26:48.420Z,9.40
2022-09-07T09:27:48.086Z,8.60
2022-09-07T09:28:48.080Z,7.90
2022-09-07T09:29:48.054Z,8.50
2022-09-07T09:30:48.092Z,7.40
2022-09-07T09:31:48.025Z,7.40
2022-09-07T09:32:48.201Z,6.80
2022-09-07T09:33:48.025Z,7.10
2022-09-07T09:34:47.995Z,6.20
2022-09-07T09:35:47.976Z,6.30
2022-09-07T09:36:47.987Z,6.80
2022-09-07T09:37:47.993Z,6.70
2022-09-07T09:38:48.199Z,6.60
2022-09-07T09:39:50.999Z,5.60
2022-09-07T09:40:48.978Z,5.50
2022-09-07T09:41:47.967Z,6.30
2022-09-07T09:42:47.915Z,5.60
2022-09-07T09:43:48.058Z,5.70
2022-09-07T09:44:47.896Z,6.00
2022-09-07T09:47:29.441Z,6.10
2022-09-07T09:47:48.887Z,4.90
2022-09-07T09:48:47.941Z,5.40
2022-09-07T09:49:48.071Z,4.80
2022-09-07T09:52:51.815Z,4.90
2022-09-07T09:53:47.812Z,5.00
2022-09-07T09:54:47.798Z,5.10
2022-09-07T09:55:47.917Z,5.00
2022-09-07T09:56:47.775Z,4.50
2022-09-07T09:59:04.775Z,5.20
2022-09-07T09:59:57.973Z,5.40
2022-09-07T10:03:56.718Z,4.90
2022-09-07T10:04:48.721Z,5.40
2022-09-07T10:05:47.677Z,4.90
2022-09-07T10:06:47.968Z,5.10
2022-09-07T10:07:47.649Z,4.50
2022-09-07T10:08:47.669Z,4.60
2022-09-07T10:09:47.629Z,5.10
2022-09-07T10:10:47.638Z,5.20
2022-09-07T10:12:48.812Z,5.30
2022-09-07T10:13:47.629Z,4.90
2022-09-07T10:14:47.584Z,4.70
2022-09-07T10:15:47.602Z,4.90
2022-09-07T10:16:47.564Z,4.50
2022-09-07T10:17:47.549Z,4.90
2022-09-07T10:18:47.702Z,4.90
2022-09-07T10:19:47.519Z,4.30
2022-09-07T10:20:47.574Z,4.90
2022-09-07T10:21:47.501Z,5.00
2022-09-07T10:22:51.310Z,4.70
2022-09-07T10:23:47.507Z,4.80
2022-09-07T10:24:47.666Z,4.70
2022-09-07T10:25:47.475Z,4.20
2022-09-07T10:26:47.482Z,4.90
2022-09-07T10:27:47.420Z,5.40
2022-09-07T10:29:48.599Z,5.00
2022-09-07T10:30:47.478Z,4.70
2022-09-07T10:31:47.404Z,4.60
2022-09-07T10:32:47.372Z,5.10
2022-09-07T10:34:25.760Z,4.70
2022-09-07T10:34:48.351Z,5.00
2022-09-07T10:35:47.868Z,5.00
2022-09-07T10:36:47.321Z,5.60
2022-09-07T10:37:47.331Z,5.90
2022-09-07T10:38:47.361Z,6.80
2022-09-07T10:39:47.386Z,6.60
2022-09-07T10:40:47.488Z,6.10
2022-09-07T10:41:47.285Z,5.70
2022-09-07T10:43:48.295Z,4.50
2022-09-07T10:44:47.237Z,4.60
2022-09-07T10:45:47.283Z,4.20
2022-09-07T10:47:02.702Z,4.30
2022-09-07T10:47:48.239Z,4.30
2022-09-07T10:48:47.205Z,4.00
2022-09-07T10:50:48.189Z,4.40
2022-09-07T10:51:47.153Z,4.50
2022-09-07T10:52:47.400Z,4.50
2022-09-07T10:53:47.237Z,4.20
2022-09-07T10:54:47.217Z,4.70
2022-09-07T10:55:47.121Z,4.10
2022-09-07T10:56:47.134Z,4.10
2022-09-07T10:57:49.268Z,3.90
2022-09-07T10:59:03.573Z,4.00
2022-09-07T11:00:48.081Z,4.30
2022-09-07T11:01:47.125Z,5.00
2022-09-07T11:03:24.995Z,4.50
2022-09-07T11:03:48.280Z,4.70
2022-09-07T11:04:47.093Z,4.60
2022-09-07T11:05:47.024Z,4.50
2022-09-07T11:06:47.022Z,4.00
2022-09-07T11:07:46.987Z,4.50
2022-09-07T11:09:48.240Z,3.80
2022-09-07T11:10:46.959Z,4.20
2022-09-07T11:12:03.476Z,3.90
2022-09-07T11:12:47.916Z,4.10
2022-09-07T11:14:09.333Z,4.10
2022-09-07T11:14:47.916Z,4.40
2022-09-07T11:15:47.172Z,3.80
2022-09-07T11:16:50.832Z,3.80
2022-09-07T11:17:50.719Z,3.90
2022-09-07T11:18:47.890Z,4.00
2022-09-07T11:19:46.906Z,4.00
2022-09-07T11:20:46.835Z,3.90
2022-09-07T11:22:02.344Z,3.80
2022-09-07T11:22:47.826Z,3.70
2022-09-07T11:23:46.855Z,3.60
2022-09-07T11:24:47.232Z,4.00
2022-09-07T11:25:46.878Z,3.80
2022-09-07T11:26:46.786Z,3.70
2022-09-07T11:27:46.959Z,3.90
2022-09-07T11:28:47.191Z,3.30
2022-09-07T11:29:46.746Z,3.80
2022-09-07T11:30:46.933Z,3.80
2022-09-07T11:31:46.757Z,4.10
2022-09-07T11:32:46.908Z,4.20
2022-09-07T11:34:23.825Z,3.90
2022-09-07T11:34:47.702Z,3.90
2022-09-07T11:35:46.666Z,3.80
2022-09-07T11:36:46.658Z,4.00
2022-09-07T11:37:46.676Z,3.90
2022-09-07T11:38:46.998Z,4.30
2022-09-07T11:39:46.670Z,3.70
2022-09-07T11:40:46.666Z,3.70
2022-09-07T11:41:46.597Z,4.20
2022-09-07T11:42:46.617Z,4.20
2022-09-07T11:43:46.646Z,4.30
2022-09-07T11:44:46.769Z,4.00
2022-09-07T11:45:46.569Z,3.80
2022-09-07T11:46:46.678Z,3.30
2022-09-07T11:47:46.548Z,4.00
2022-09-07T11:48:46.537Z,3.60
2022-09-07T11:49:51.990Z,3.40
2022-09-07T11:50:47.700Z,4.30
2022-09-07T11:51:46.523Z,6.00
2022-09-07T11:52:46.500Z,5.60
2022-09-07T11:53:46.491Z,5.60
2022-09-07T11:54:46.469Z,4.80
2022-09-07T11:55:46.471Z,4.50
2022-09-07T11:56:46.660Z,4.30
2022-09-07T11:57:46.477Z,4.00
2022-09-07T11:58:46.433Z,4.30
2022-09-07T11:59:46.422Z,4.50
2022-09-07T12:00:46.457Z,4.60
2022-09-07T12:01:46.399Z,4.40
2022-09-07T12:02:59.327Z,4.70
2022-09-07T12:03:47.455Z,4.30
2022-09-07T12:04:46.414Z,4.00
2022-09-07T12:05:46.426Z,4.60
2022-09-07T12:06:46.364Z,4.80
2022-09-07T12:10:03.424Z,4.70
2022-09-07T12:11:03.251Z,4.30
2022-09-07T12:12:03.240Z,4.50
2022-09-07T12:13:03.232Z,4.40
2022-09-07T12:14:03.390Z,4.20
2022-09-07T12:15:03.211Z,4.40
2022-09-07T12:16:03.275Z,4.10
2022-09-07T12:17:03.180Z,4.60
2022-09-07T12:18:03.308Z,4.90
2022-09-07T12:19:03.172Z,3.90
2022-09-07T12:20:03.375Z,3.80
2022-09-07T12:21:03.148Z,4.60
2022-09-07T12:22:03.141Z,5.10
2022-09-07T12:23:05.169Z,4.90
2022-09-07T12:24:03.158Z,4.90
2022-09-07T12:25:03.111Z,4.50
2022-09-07T12:26:03.303Z,4.40
2022-09-07T12:27:03.095Z,4.10
2022-09-07T12:28:03.099Z,4.60
2022-09-07T12:29:03.086Z,4.40
2022-09-07T12:30:03.057Z,3.80
2022-09-07T12:31:03.057Z,4.20
2022-09-07T12:33:04.138Z,4.00
2022-09-07T12:34:03.012Z,4.50
2022-09-07T12:35:03.005Z,3.70
2022-09-07T12:36:02.992Z,4.20
2022-09-07T12:37:03.011Z,4.20
2022-09-07T12:38:03.132Z,4.20
2022-09-07T12:39:02.953Z,4.00
2022-09-07T12:40:03.052Z,4.20
2022-09-07T12:41:02.953Z,4.30
2022-09-07T12:43:09.720Z,4.00
2022-09-07T12:44:03.912Z,4.10
2022-09-07T12:45:02.903Z,4.40
2022-09-07T12:46:02.929Z,4.70
2022-09-07T12:47:02.886Z,5.80
2022-09-07T12:48:04.527Z,5.20
2022-09-07T12:49:03.185Z,6.00
2022-09-07T12:50:02.925Z,4.70
2022-09-07T12:51:02.843Z,4.70
2022-09-07T12:52:11.416Z,3.90
2022-09-07T12:53:03.822Z,3.70
2022-09-07T12:54:02.785Z,4.00
2022-09-07T12:55:26.462Z,4.20
2022-09-07T12:56:19.177Z,4.00
2022-09-07T12:58:03.776Z,4.20
2022-09-07T12:59:02.765Z,3.90
2022-09-07T13:00:02.739Z,4.00
2022-09-07T13:01:05.584Z,3.60
2022-09-07T13:02:02.813Z,3.90
2022-09-07T13:03:03.914Z,4.00
2022-09-07T13:04:02.695Z,3.90
2022-09-07T13:05:02.705Z,3.60
2022-09-07T13:06:02.834Z,4.10
2022-09-07T13:07:03.125Z,3.80
2022-09-07T13:08:08.629Z,3.50
2022-09-07T13:09:03.653Z,3.60
2022-09-07T13:10:02.636Z,3.80
2022-09-07T13:11:02.622Z,3.80
2022-09-07T13:12:03.207Z,3.90
2022-09-07T13:13:03.652Z,3.30
2022-09-07T13:14:04.756Z,3.80
2022-09-07T13:15:02.586Z,3.70
2022-09-07T13:16:03.739Z,3.50
2022-09-07T13:17:18.028Z,2.90
2022-09-07T13:18:03.700Z,3.00
2022-09-07T13:19:02.649Z,3.00
2022-09-07T13:20:02.614Z,3.10
2022-09-07T13:21:02.511Z,3.00
2022-09-07T13:22:02.496Z,3.50
2022-09-07T13:23:03.658Z,3.10
2022-09-07T13:24:45.687Z,3.10
2022-09-07T13:25:03.473Z,3.50
2022-09-07T13:26:02.453Z,3.00
2022-09-07T13:27:02.458Z,2.90
2022-09-07T13:28:02.451Z,2.70
2022-09-07T13:29:02.634Z,3.10
2022-09-07T13:30:02.419Z,2.80
2022-09-07T13:31:02.433Z,3.20
2022-09-07T13:32:03.559Z,3.30
2022-09-07T13:33:09.470Z,2.90
2022-09-07T13:34:03.531Z,3.50
2022-09-07T13:35:02.356Z,2.90
2022-09-07T13:36:02.385Z,3.20
2022-09-07T13:37:02.373Z,3.00
2022-09-07T13:38:02.325Z,3.00
2022-09-07T13:39:02.309Z,2.80
2022-09-07T13:40:02.566Z,2.80
2022-09-07T13:41:02.290Z,3.00
2022-09-07T13:42:02.281Z,2.50